sensor_id;sensor_type;location;lat;lon;timestamp;P1;durP1;ratioP1;P2;durP2;ratioP2
15192;SDS011;7697;51.630;7.484;2023-04-02T00:04:03;3.50;;;3.17;;
15192;SDS011;7697;51.630;7.484;2023-04-02T00:09:27;2.90;;;2.70;;
15192;SDS011;7697;51.630;7.484;2023-04-02T00:14:32;2.92;;;2.72;;
15192;SDS011;7697;51.630;7.484;2023-04-02T00:19:35;3.00;;;2.70;;
15192;SDS011;7697;51.630;7.484;2023-04-02T00:24:43;3.53;;;2.65;;
15192;SDS011;7697;51.630;7.484;2023-04-02T00:29:46;3.65;;;2.50;;
15192;SDS011;7697;51.630;7.484;2023-04-02T00:34:49;3.67;;;2.50;;
15192;SDS011;7697;51.630;7.484;2023-04-02T00:39:54;2.45;;;2.25;;
15192;SDS011;7697;51.630;7.484;2023-04-02T00:45:01;2.55;;;2.35;;
15192;SDS011;7697;51.630;7.484;2023-04-02T00:50:05;2.92;;;2.50;;
15192;SDS011;7697;51.630;7.484;2023-04-02T00:55:21;3.40;;;2.60;;
15192;SDS011;7697;51.630;7.484;2023-04-02T01:00:27;2.90;;;2.60;;
15192;SDS011;7697;51.630;7.484;2023-04-02T01:05:33;2.92;;;2.63;;
15192;SDS011;7697;51.630;7.484;2023-04-02T01:10:40;2.60;;;2.40;;
15192;SDS011;7697;51.630;7.484;2023-04-02T01:15:53;2.80;;;2.60;;
15192;SDS011;7697;51.630;7.484;2023-04-02T01:21:06;2.90;;;2.70;;
15192;SDS011;7697;51.630;7.484;2023-04-02T01:26:17;2.80;;;2.60;;
15192;SDS011;7697;51.630;7.484;2023-04-02T01:31:29;2.47;;;2.27;;
15192;SDS011;7697;51.630;7.484;2023-04-02T01:36:35;2.77;;;2.57;;
15192;SDS011;7697;51.630;7.484;2023-04-02T01:41:45;2.70;;;2.50;;
15192;SDS011;7697;51.630;7.484;2023-04-02T01:46:52;3.10;;;2.80;;
15192;SDS011;7697;51.630;7.484;2023-04-02T01:51:54;3.50;;;2.83;;
15192;SDS011;7697;51.630;7.484;2023-04-02T01:56:56;3.13;;;2.83;;
15192;SDS011;7697;51.630;7.484;2023-04-02T02:02:01;2.80;;;2.50;;
15192;SDS011;7697;51.630;7.484;2023-04-02T02:07:04;3.47;;;3.17;;
15192;SDS011;7697;51.630;7.484;2023-04-02T02:12:09;3.10;;;2.80;;
15192;SDS011;7697;51.630;7.484;2023-04-02T02:17:15;3.33;;;3.03;;
15192;SDS011;7697;51.630;7.484;2023-04-02T02:22:28;2.87;;;2.57;;
15192;SDS011;7697;51.630;7.484;2023-04-02T02:27:41;2.50;;;2.30;;
15192;SDS011;7697;51.630;7.484;2023-04-02T02:32:51;3.80;;;2.67;;
15192;SDS011;7697;51.630;7.484;2023-04-02T02:38:01;3.90;;;2.93;;
15192;SDS011;7697;51.630;7.484;2023-04-02T02:43:12;3.30;;;2.80;;
15192;SDS011;7697;51.630;7.484;2023-04-02T02:48:19;3.00;;;2.57;;
15192;SDS011;7697;51.630;7.484;2023-04-02T02:53:23;2.83;;;2.60;;
15192;SDS011;7697;51.630;7.484;2023-04-02T02:58:26;3.97;;;2.73;;
15192;SDS011;7697;51.630;7.484;2023-04-02T03:03:33;4.32;;;2.80;;
15192;SDS011;7697;51.630;7.484;2023-04-02T03:08:36;4.30;;;3.87;;
15192;SDS011;7697;51.630;7.484;2023-04-02T03:13:42;4.10;;;3.47;;
15192;SDS011;7697;51.630;7.484;2023-04-02T03:18:50;5.50;;;3.77;;
15192;SDS011;7697;51.630;7.484;2023-04-02T03:23:56;4.90;;;3.90;;
15192;SDS011;7697;51.630;7.484;2023-04-02T03:29:02;5.07;;;3.90;;
15192;SDS011;7697;51.630;7.484;2023-04-02T03:34:10;7.43;;;4.60;;
15192;SDS011;7697;51.630;7.484;2023-04-02T03:39:17;6.23;;;4.70;;
15192;SDS011;7697;51.630;7.484;2023-04-02T03:44:25;7.53;;;5.10;;
15192;SDS011;7697;51.630;7.484;2023-04-02T03:49:32;5.93;;;4.70;;
15192;SDS011;7697;51.630;7.484;2023-04-02T03:54:36;6.67;;;4.77;;
15192;SDS011;7697;51.630;7.484;2023-04-02T03:59:40;4.93;;;4.43;;
15192;SDS011;7697;51.630;7.484;2023-04-02T04:04:50;6.47;;;4.77;;
15192;SDS011;7697;51.630;7.484;2023-04-02T04:09:54;6.67;;;4.60;;
15192;SDS011;7697;51.630;7.484;2023-04-02T04:14:58;6.30;;;4.93;;
15192;SDS011;7697;51.630;7.484;2023-04-02T04:20:11;6.83;;;5.67;;
15192;SDS011;7697;51.630;7.484;2023-04-02T04:25:22;7.83;;;5.50;;
15192;SDS011;7697;51.630;7.484;2023-04-02T04:30:30;8.90;;;5.50;;
15192;SDS011;7697;51.630;7.484;2023-04-02T04:35:45;9.90;;;5.80;;
15192;SDS011;7697;51.630;7.484;2023-04-02T04:40:53;8.30;;;5.77;;
15192;SDS011;7697;51.630;7.484;2023-04-02T04:45:59;7.90;;;5.50;;
15192;SDS011;7697;51.630;7.484;2023-04-02T04:51:04;9.53;;;5.60;;
15192;SDS011;7697;51.630;7.484;2023-04-02T04:56:09;8.83;;;5.23;;
15192;SDS011;7697;51.630;7.484;2023-04-02T05:01:11;9.00;;;5.20;;
15192;SDS011;7697;51.630;7.484;2023-04-02T05:06:21;8.70;;;5.47;;
15192;SDS011;7697;51.630;7.484;2023-04-02T05:11:33;6.00;;;4.57;;
15192;SDS011;7697;51.630;7.484;2023-04-02T05:16:39;7.50;;;5.03;;
15192;SDS011;7697;51.630;7.484;2023-04-02T05:21:52;8.53;;;5.43;;
15192;SDS011;7697;51.630;7.484;2023-04-02T05:26:58;6.80;;;4.97;;
15192;SDS011;7697;51.630;7.484;2023-04-02T05:32:03;7.13;;;4.77;;
15192;SDS011;7697;51.630;7.484;2023-04-02T05:37:13;8.43;;;5.17;;
15192;SDS011;7697;51.630;7.484;2023-04-02T05:42:19;5.83;;;4.03;;
15192;SDS011;7697;51.630;7.484;2023-04-02T05:47:24;7.03;;;4.40;;
15192;SDS011;7697;51.630;7.484;2023-04-02T05:52:33;7.90;;;4.90;;
15192;SDS011;7697;51.630;7.484;2023-04-02T05:57:39;7.63;;;4.50;;
15192;SDS011;7697;51.630;7.484;2023-04-02T06:02:49;10.20;;;4.80;;
15192;SDS011;7697;51.630;7.484;2023-04-02T06:08:02;7.80;;;4.93;;
15192;SDS011;7697;51.630;7.484;2023-04-02T06:13:09;6.73;;;4.73;;
15192;SDS011;7697;51.630;7.484;2023-04-02T06:18:17;6.60;;;4.57;;
15192;SDS011;7697;51.630;7.484;2023-04-02T06:23:23;5.87;;;4.10;;
15192;SDS011;7697;51.630;7.484;2023-04-02T06:28:32;6.73;;;4.43;;
15192;SDS011;7697;51.630;7.484;2023-04-02T06:33:38;7.13;;;4.50;;
15192;SDS011;7697;51.630;7.484;2023-04-02T06:38:41;5.43;;;3.37;;
15192;SDS011;7697;51.630;7.484;2023-04-02T06:43:44;5.57;;;3.43;;
15192;SDS011;7697;51.630;7.484;2023-04-02T06:48:49;7.43;;;4.33;;
15192;SDS011;7697;51.630;7.484;2023-04-02T06:53:57;4.13;;;3.40;;
15192;SDS011;7697;51.630;7.484;2023-04-02T06:58:59;6.53;;;3.73;;
15192;SDS011;7697;51.630;7.484;2023-04-02T07:04:03;5.57;;;3.30;;
15192;SDS011;7697;51.630;7.484;2023-04-02T07:09:07;6.03;;;3.30;;
15192;SDS011;7697;51.630;7.484;2023-04-02T07:14:09;5.97;;;3.37;;
15192;SDS011;7697;51.630;7.484;2023-04-02T07:19:15;4.53;;;3.77;;
15192;SDS011;7697;51.630;7.484;2023-04-02T07:24:20;6.93;;;3.93;;
15192;SDS011;7697;51.630;7.484;2023-04-02T07:29:22;7.47;;;3.97;;
15192;SDS011;7697;51.630;7.484;2023-04-02T07:34:24;7.40;;;3.87;;
15192;SDS011;7697;51.630;7.484;2023-04-02T07:39:27;5.03;;;3.10;;
15192;SDS011;7697;51.630;7.484;2023-04-02T07:44:30;6.33;;;3.67;;
15192;SDS011;7697;51.630;7.484;2023-04-02T07:49:31;5.90;;;4.00;;
15192;SDS011;7697;51.630;7.484;2023-04-02T07:54:34;7.67;;;3.93;;
15192;SDS011;7697;51.630;7.484;2023-04-02T07:59:37;7.13;;;4.20;;
15192;SDS011;7697;51.630;7.484;2023-04-02T08:04:38;5.93;;;3.67;;
15192;SDS011;7697;51.630;7.484;2023-04-02T08:09:42;5.87;;;3.80;;
15192;SDS011;7697;51.630;7.484;2023-04-02T08:14:44;5.40;;;3.70;;
15192;SDS011;7697;51.630;7.484;2023-04-02T08:19:45;8.00;;;3.93;;
15192;SDS011;7697;51.630;7.484;2023-04-02T08:24:48;5.50;;;3.17;;
15192;SDS011;7697;51.630;7.484;2023-04-02T08:29:50;5.40;;;3.47;;
15192;SDS011;7697;51.630;7.484;2023-04-02T08:34:52;5.97;;;3.77;;
15192;SDS011;7697;51.630;7.484;2023-04-02T08:39:55;4.57;;;2.90;;
15192;SDS011;7697;51.630;7.484;2023-04-02T08:45:01;6.30;;;2.97;;
15192;SDS011;7697;51.630;7.484;2023-04-02T08:50:13;3.73;;;2.80;;
15192;SDS011;7697;51.630;7.484;2023-04-02T08:55:29;4.33;;;2.60;;
15192;SDS011;7697;51.630;7.484;2023-04-02T09:00:35;5.73;;;2.77;;
15192;SDS011;7697;51.630;7.484;2023-04-02T09:05:41;5.77;;;3.10;;
15192;SDS011;7697;51.630;7.484;2023-04-02T09:10:49;5.53;;;3.20;;
15192;SDS011;7697;51.630;7.484;2023-04-02T09:15:55;4.77;;;2.50;;
15192;SDS011;7697;51.630;7.484;2023-04-02T09:21:01;4.23;;;2.43;;
15192;SDS011;7697;51.630;7.484;2023-04-02T09:26:20;4.43;;;2.67;;
15192;SDS011;7697;51.630;7.484;2023-04-02T09:31:25;5.63;;;3.03;;
15192;SDS011;7697;51.630;7.484;2023-04-02T09:36:35;5.97;;;3.50;;
15192;SDS011;7697;51.630;7.484;2023-04-02T09:41:39;3.90;;;2.30;;
15192;SDS011;7697;51.630;7.484;2023-04-02T09:46:52;7.33;;;2.20;;
15192;SDS011;7697;51.630;7.484;2023-04-02T09:52:05;3.03;;;2.10;;
15192;SDS011;7697;51.630;7.484;2023-04-02T09:57:18;3.37;;;2.60;;
15192;SDS011;7697;51.630;7.484;2023-04-02T10:02:24;4.00;;;3.03;;
15192;SDS011;7697;51.630;7.484;2023-04-02T10:07:31;5.03;;;3.00;;
15192;SDS011;7697;51.630;7.484;2023-04-02T10:12:36;4.57;;;3.03;;
15192;SDS011;7697;51.630;7.484;2023-04-02T10:17:41;4.93;;;3.03;;
15192;SDS011;7697;51.630;7.484;2023-04-02T10:22:46;4.37;;;2.50;;
15192;SDS011;7697;51.630;7.484;2023-04-02T10:27:50;5.17;;;3.10;;
15192;SDS011;7697;51.630;7.484;2023-04-02T10:32:58;3.80;;;2.60;;
15192;SDS011;7697;51.630;7.484;2023-04-02T10:38:08;3.43;;;2.17;;
15192;SDS011;7697;51.630;7.484;2023-04-02T10:43:29;3.57;;;2.30;;
15192;SDS011;7697;51.630;7.484;2023-04-02T10:48:42;3.10;;;2.20;;
15192;SDS011;7697;51.630;7.484;2023-04-02T10:53:52;3.03;;;2.10;;
15192;SDS011;7697;51.630;7.484;2023-04-02T10:59:05;2.70;;;2.00;;
15192;SDS011;7697;51.630;7.484;2023-04-02T11:04:18;3.37;;;2.40;;
15192;SDS011;7697;51.630;7.484;2023-04-02T11:09:26;3.63;;;2.30;;
15192;SDS011;7697;51.630;7.484;2023-04-02T11:14:32;3.38;;;2.10;;
15192;SDS011;7697;51.630;7.484;2023-04-02T11:19:35;2.80;;;2.00;;
15192;SDS011;7697;51.630;7.484;2023-04-02T11:24:40;3.53;;;1.90;;
15192;SDS011;7697;51.630;7.484;2023-04-02T11:29:45;3.72;;;1.95;;
15192;SDS011;7697;51.630;7.484;2023-04-02T11:40:40;3.10;;;2.00;;
15192;SDS011;7697;51.630;7.484;2023-04-02T11:45:53;3.77;;;2.20;;
15192;SDS011;7697;51.630;7.484;2023-04-02T11:50:57;2.85;;;2.17;;
15192;SDS011;7697;51.630;7.484;2023-04-02T11:56:04;3.37;;;2.00;;
15192;SDS011;7697;51.630;7.484;2023-04-02T12:06:47;3.38;;;1.80;;
15192;SDS011;7697;51.630;7.484;2023-04-02T12:11:56;3.53;;;2.00;;
15192;SDS011;7697;51.630;7.484;2023-04-02T12:17:02;2.28;;;1.67;;
15192;SDS011;7697;51.630;7.484;2023-04-02T12:22:05;3.17;;;2.40;;
15192;SDS011;7697;51.630;7.484;2023-04-02T12:27:19;2.28;;;1.92;;
15192;SDS011;7697;51.630;7.484;2023-04-02T12:32:24;2.47;;;1.90;;
15192;SDS011;7697;51.630;7.484;2023-04-02T12:37:28;2.42;;;1.83;;
15192;SDS011;7697;51.630;7.484;2023-04-02T12:42:31;2.83;;;1.90;;
15192;SDS011;7697;51.630;7.484;2023-04-02T12:47:36;2.78;;;1.85;;
15192;SDS011;7697;51.630;7.484;2023-04-02T12:52:42;2.35;;;1.80;;
15192;SDS011;7697;51.630;7.484;2023-04-02T12:57:46;3.40;;;2.20;;
15192;SDS011;7697;51.630;7.484;2023-04-02T13:02:51;2.92;;;1.98;;
15192;SDS011;7697;51.630;7.484;2023-04-02T13:08:00;2.58;;;1.70;;
15192;SDS011;7697;51.630;7.484;2023-04-02T13:13:03;3.67;;;1.75;;
15192;SDS011;7697;51.630;7.484;2023-04-02T13:18:16;3.08;;;1.80;;
15192;SDS011;7697;51.630;7.484;2023-04-02T13:23:28;3.80;;;2.00;;
15192;SDS011;7697;51.630;7.484;2023-04-02T13:28:33;3.80;;;1.83;;
15192;SDS011;7697;51.630;7.484;2023-04-02T13:33:36;3.20;;;1.88;;
15192;SDS011;7697;51.630;7.484;2023-04-02T13:38:41;5.00;;;2.20;;
15192;SDS011;7697;51.630;7.484;2023-04-02T13:43:43;3.75;;;2.17;;
15192;SDS011;7697;51.630;7.484;2023-04-02T13:48:46;3.90;;;3.08;;
15192;SDS011;7697;51.630;7.484;2023-04-02T13:53:49;2.97;;;2.13;;
15192;SDS011;7697;51.630;7.484;2023-04-02T13:58:54;5.75;;;3.85;;
15192;SDS011;7697;51.630;7.484;2023-04-02T14:03:57;4.18;;;2.60;;
15192;SDS011;7697;51.630;7.484;2023-04-02T14:09:01;5.13;;;2.38;;
15192;SDS011;7697;51.630;7.484;2023-04-02T14:14:14;2.50;;;2.10;;
15192;SDS011;7697;51.630;7.484;2023-04-02T14:25:21;3.97;;;2.25;;
15192;SDS011;7697;51.630;7.484;2023-04-02T14:30:34;3.45;;;2.17;;
15192;SDS011;7697;51.630;7.484;2023-04-02T14:35:46;3.42;;;2.10;;
15192;SDS011;7697;51.630;7.484;2023-04-02T14:40:54;2.83;;;1.83;;
15192;SDS011;7697;51.630;7.484;2023-04-02T14:46:00;4.18;;;2.00;;
15192;SDS011;7697;51.630;7.484;2023-04-02T14:51:10;2.63;;;2.00;;
15192;SDS011;7697;51.630;7.484;2023-04-02T14:56:16;2.97;;;1.90;;
15192;SDS011;7697;51.630;7.484;2023-04-02T15:01:20;2.83;;;2.00;;
15192;SDS011;7697;51.630;7.484;2023-04-02T15:06:29;3.03;;;1.80;;
15192;SDS011;7697;51.630;7.484;2023-04-02T15:11:36;3.00;;;1.90;;
15192;SDS011;7697;51.630;7.484;2023-04-02T15:16:42;3.40;;;1.80;;
15192;SDS011;7697;51.630;7.484;2023-04-02T15:21:48;2.97;;;2.08;;
15192;SDS011;7697;51.630;7.484;2023-04-02T15:27:00;3.22;;;2.00;;
15192;SDS011;7697;51.630;7.484;2023-04-02T15:32:13;5.03;;;2.20;;
15192;SDS011;7697;51.630;7.484;2023-04-02T15:37:27;2.05;;;1.70;;
15192;SDS011;7697;51.630;7.484;2023-04-02T15:42:35;2.42;;;1.73;;
15192;SDS011;7697;51.630;7.484;2023-04-02T15:47:41;2.63;;;1.65;;
15192;SDS011;7697;51.630;7.484;2023-04-02T15:52:52;2.90;;;1.70;;
15192;SDS011;7697;51.630;7.484;2023-04-02T15:58:04;2.45;;;1.70;;
15192;SDS011;7697;51.630;7.484;2023-04-02T16:03:19;3.58;;;1.83;;
15192;SDS011;7697;51.630;7.484;2023-04-02T16:08:38;2.42;;;1.38;;
15192;SDS011;7697;51.630;7.484;2023-04-02T16:13:49;3.97;;;1.70;;
15192;SDS011;7697;51.630;7.484;2023-04-02T16:18:55;3.78;;;1.90;;
15192;SDS011;7697;51.630;7.484;2023-04-02T16:24:07;3.20;;;1.88;;
15192;SDS011;7697;51.630;7.484;2023-04-02T16:29:14;8.80;;;4.35;;
15192;SDS011;7697;51.630;7.484;2023-04-02T16:34:31;3.75;;;1.90;;
15192;SDS011;7697;51.630;7.484;2023-04-02T16:39:43;3.08;;;1.95;;
15192;SDS011;7697;51.630;7.484;2023-04-02T16:44:54;2.33;;;1.55;;
15192;SDS011;7697;51.630;7.484;2023-04-02T16:50:06;2.45;;;1.80;;
15192;SDS011;7697;51.630;7.484;2023-04-02T16:55:23;2.55;;;1.60;;
15192;SDS011;7697;51.630;7.484;2023-04-02T17:00:35;2.78;;;1.70;;
15192;SDS011;7697;51.630;7.484;2023-04-02T17:05:50;2.13;;;1.60;;
15192;SDS011;7697;51.630;7.484;2023-04-02T17:11:01;2.75;;;1.70;;
15192;SDS011;7697;51.630;7.484;2023-04-02T17:16:11;2.88;;;1.85;;
15192;SDS011;7697;51.630;7.484;2023-04-02T17:21:27;3.70;;;1.70;;
15192;SDS011;7697;51.630;7.484;2023-04-02T17:26:33;2.33;;;1.70;;
15192;SDS011;7697;51.630;7.484;2023-04-02T17:31:37;2.55;;;1.80;;
15192;SDS011;7697;51.630;7.484;2023-04-02T17:36:42;3.25;;;1.88;;
15192;SDS011;7697;51.630;7.484;2023-04-02T17:41:56;3.78;;;1.83;;
15192;SDS011;7697;51.630;7.484;2023-04-02T17:47:09;4.38;;;3.05;;
15192;SDS011;7697;51.630;7.484;2023-04-02T17:52:19;2.78;;;1.85;;
15192;SDS011;7697;51.630;7.484;2023-04-02T17:57:29;3.38;;;1.70;;
15192;SDS011;7697;51.630;7.484;2023-04-02T18:02:47;3.90;;;2.00;;
15192;SDS011;7697;51.630;7.484;2023-04-02T18:08:02;3.75;;;2.17;;
15192;SDS011;7697;51.630;7.484;2023-04-02T18:13:17;3.25;;;2.20;;
15192;SDS011;7697;51.630;7.484;2023-04-02T18:18:39;2.45;;;1.80;;
15192;SDS011;7697;51.630;7.484;2023-04-02T18:23:53;2.17;;;1.75;;
15192;SDS011;7697;51.630;7.484;2023-04-02T18:29:06;3.58;;;2.22;;
15192;SDS011;7697;51.630;7.484;2023-04-02T18:34:25;2.10;;;1.70;;
15192;SDS011;7697;51.630;7.484;2023-04-02T18:39:43;2.10;;;1.77;;
15192;SDS011;7697;51.630;7.484;2023-04-02T18:44:56;1.80;;;1.52;;
15192;SDS011;7697;51.630;7.484;2023-04-02T18:50:10;2.47;;;1.50;;
15192;SDS011;7697;51.630;7.484;2023-04-02T18:55:17;1.88;;;1.63;;
15192;SDS011;7697;51.630;7.484;2023-04-02T19:00:24;2.58;;;2.10;;
15192;SDS011;7697;51.630;7.484;2023-04-02T19:05:31;3.08;;;2.35;;
15192;SDS011;7697;51.630;7.484;2023-04-02T19:10:40;3.40;;;2.50;;
15192;SDS011;7697;51.630;7.484;2023-04-02T19:15:57;4.18;;;2.92;;
15192;SDS011;7697;51.630;7.484;2023-04-02T19:21:16;2.60;;;2.22;;
15192;SDS011;7697;51.630;7.484;2023-04-02T19:26:29;3.53;;;2.50;;
15192;SDS011;7697;51.630;7.484;2023-04-02T19:31:47;2.63;;;2.20;;
15192;SDS011;7697;51.630;7.484;2023-04-02T19:36:54;2.95;;;2.40;;
15192;SDS011;7697;51.630;7.484;2023-04-02T19:42:02;3.35;;;2.70;;
15192;SDS011;7697;51.630;7.484;2023-04-02T19:47:16;2.92;;;2.30;;
15192;SDS011;7697;51.630;7.484;2023-04-02T19:52:18;3.15;;;2.28;;
15192;SDS011;7697;51.630;7.484;2023-04-02T19:57:20;2.97;;;2.30;;
15192;SDS011;7697;51.630;7.484;2023-04-02T20:02:23;3.38;;;2.10;;
15192;SDS011;7697;51.630;7.484;2023-04-02T20:07:25;2.40;;;2.20;;
15192;SDS011;7697;51.630;7.484;2023-04-02T20:12:27;3.90;;;2.23;;
15192;SDS011;7697;51.630;7.484;2023-04-02T20:17:30;3.23;;;2.30;;
15192;SDS011;7697;51.630;7.484;2023-04-02T20:22:32;2.70;;;2.10;;
15192;SDS011;7697;51.630;7.484;2023-04-02T20:27:33;3.37;;;2.20;;
15192;SDS011;7697;51.630;7.484;2023-04-02T20:32:37;2.17;;;1.85;;
15192;SDS011;7697;51.630;7.484;2023-04-02T20:37:39;2.77;;;2.00;;
15192;SDS011;7697;51.630;7.484;2023-04-02T20:42:41;2.83;;;2.00;;
15192;SDS011;7697;51.630;7.484;2023-04-02T20:47:44;3.30;;;2.20;;
15192;SDS011;7697;51.630;7.484;2023-04-02T20:52:46;2.23;;;1.80;;
15192;SDS011;7697;51.630;7.484;2023-04-02T20:57:48;1.70;;;1.60;;
15192;SDS011;7697;51.630;7.484;2023-04-02T21:02:51;2.43;;;1.97;;
15192;SDS011;7697;51.630;7.484;2023-04-02T21:07:53;3.10;;;1.67;;
15192;SDS011;7697;51.630;7.484;2023-04-02T21:12:55;2.23;;;1.83;;
15192;SDS011;7697;51.630;7.484;2023-04-02T21:17:58;1.60;;;1.50;;
15192;SDS011;7697;51.630;7.484;2023-04-02T21:23:00;1.60;;;1.30;;
15192;SDS011;7697;51.630;7.484;2023-04-02T21:28:01;1.73;;;1.43;;
15192;SDS011;7697;51.630;7.484;2023-04-02T21:33:04;2.07;;;1.70;;
15192;SDS011;7697;51.630;7.484;2023-04-02T21:38:06;3.40;;;2.53;;
15192;SDS011;7697;51.630;7.484;2023-04-02T21:43:08;4.03;;;2.53;;
15192;SDS011;7697;51.630;7.484;2023-04-02T21:48:11;3.30;;;2.57;;
15192;SDS011;7697;51.630;7.484;2023-04-02T21:53:13;4.27;;;2.30;;
15192;SDS011;7697;51.630;7.484;2023-04-02T21:58:14;2.60;;;1.87;;
15192;SDS011;7697;51.630;7.484;2023-04-02T22:03:18;3.57;;;1.90;;
15192;SDS011;7697;51.630;7.484;2023-04-02T22:08:20;2.00;;;1.70;;
15192;SDS011;7697;51.630;7.484;2023-04-02T22:13:21;3.80;;;1.83;;
15192;SDS011;7697;51.630;7.484;2023-04-02T22:18:25;2.53;;;1.70;;
15192;SDS011;7697;51.630;7.484;2023-04-02T22:23:26;1.90;;;1.50;;
15192;SDS011;7697;51.630;7.484;2023-04-02T22:28:29;2.07;;;1.63;;
15192;SDS011;7697;51.630;7.484;2023-04-02T22:33:32;1.90;;;1.67;;
15192;SDS011;7697;51.630;7.484;2023-04-02T22:38:35;2.47;;;1.60;;
15192;SDS011;7697;51.630;7.484;2023-04-02T22:43:38;2.67;;;2.20;;
15192;SDS011;7697;51.630;7.484;2023-04-02T22:48:41;2.40;;;2.20;;
15192;SDS011;7697;51.630;7.484;2023-04-02T22:53:44;2.60;;;2.17;;
15192;SDS011;7697;51.630;7.484;2023-04-02T22:58:46;5.00;;;3.00;;
15192;SDS011;7697;51.630;7.484;2023-04-02T23:03:51;3.90;;;2.60;;
15192;SDS011;7697;51.630;7.484;2023-04-02T23:08:54;3.20;;;2.87;;
15192;SDS011;7697;51.630;7.484;2023-04-02T23:13:56;2.77;;;2.13;;
15192;SDS011;7697;51.630;7.484;2023-04-02T23:18:59;3.93;;;2.23;;
15192;SDS011;7697;51.630;7.484;2023-04-02T23:24:01;2.50;;;1.73;;
15192;SDS011;7697;51.630;7.484;2023-04-02T23:29:03;2.50;;;1.57;;
15192;SDS011;7697;51.630;7.484;2023-04-02T23:34:07;2.10;;;1.43;;
15192;SDS011;7697;51.630;7.484;2023-04-02T23:39:10;2.17;;;1.30;;
15192;SDS011;7697;51.630;7.484;2023-04-02T23:44:13;2.70;;;1.50;;
15192;SDS011;7697;51.630;7.484;2023-04-02T23:49:16;2.30;;;1.40;;
15192;SDS011;7697;51.630;7.484;2023-04-02T23:54:19;2.70;;;1.50;;
15192;SDS011;7697;51.630;7.484;2023-04-02T23:59:20;2.77;;;1.50;;
